Time;durP1;ratioP1;P1;durP2;ratioP2;P2;SDS_P1;SDS_P2;PMS_P1;PMS_P2;Temp;Humidity;BMP_temperature;BMP_pressure;BME280_temperature;BME280_humidity;BME280_pressure;Samples;Min_cycle;Max_cycle;Signal;HPM_P1;HPM_P2
2022/05/10 00:01:51;;;;;;;2.93;2.70;;;14.30;1.00;;;;;;5056122;28;20197;-65
2022/05/10 00:04:18;;;;;;;6.27;3.23;;;14.20;1.00;;;;;;5055587;28;20197;-60
2022/05/10 00:06:47;;;;;;;4.30;3.43;;;14.30;1.00;;;;;;5056090;28;20202;-60
2022/05/10 00:09:15;;;;;;;5.37;3.43;;;14.30;1.00;;;;;;5055378;28;20393;-64
2022/05/10 00:11:41;;;;;;;4.60;3.27;;;14.30;1.00;;;;;;5056005;28;20390;-60
2022/05/10 00:14:07;;;;;;;6.47;3.87;;;14.30;1.00;;;;;;5054408;28;20409;-60
2022/05/10 00:16:39;;;;;;;7.27;3.57;;;14.20;1.00;;;;;;5055978;28;20754;-60
2022/05/10 00:19:04;;;;;;;7.83;4.30;;;14.20;1.00;;;;;;5053887;28;20704;-65
2022/05/10 00:21:30;;;;;;;4.43;3.73;;;14.20;1.00;;;;;;5055717;28;20410;-65
2022/05/10 00:23:56;;;;;;;5.20;4.00;;;14.20;1.00;;;;;;5055245;28;20187;-65
2022/05/10 00:26:22;;;;;;;5.00;3.27;;;14.20;1.00;;;;;;5054296;28;20171;-60
2022/05/10 00:28:48;;;;;;;4.00;3.50;;;14.20;1.00;;;;;;5055132;28;20186;-65
2022/05/10 00:31:14;;;;;;;3.67;3.40;;;14.20;1.00;;;;;;5055600;28;20960;-60
2022/05/10 00:33:40;;;;;;;5.33;3.87;;;14.20;1.00;;;;;;5055521;28;20183;-60
2022/05/10 00:36:10;;;;;;;6.80;3.70;;;14.20;1.00;;;;;;5055470;28;20732;-60
2022/05/10 00:38:38;;;;;;;8.60;3.97;;;14.20;1.00;;;;;;5054537;28;20171;-61
2022/05/10 00:41:28;;;;;;;6.73;3.80;;;14.20;1.00;;;;;;5055184;28;20393;-65
2022/05/10 00:44:42;;;;;;;4.20;2.93;;;14.10;1.00;;;;;;5054145;28;20435;-61
2022/05/10 00:47:33;;;;;;;3.53;3.17;;;14.10;1.00;;;;;;5033203;28;20436;-60
2022/05/10 00:50:01;;;;;;;3.63;3.30;;;14.10;1.00;;;;;;5016375;28;20389;-65
2022/05/10 00:52:41;;;;;;;4.67;3.50;;;14.10;1.00;;;;;;5047416;28;20491;-60
2022/05/10 00:55:15;;;;;;;6.10;3.50;;;14.10;1.00;;;;;;5055251;28;20433;-65
2022/05/10 00:57:43;;;;;;;5.13;3.60;;;14.00;1.00;;;;;;5053558;28;20902;-59
2022/05/10 01:00:23;;;;;;;5.73;3.70;;;14.00;1.00;;;;;;5054514;28;20422;-64
2022/05/10 01:03:27;;;;;;;4.53;3.40;;;14.00;1.00;;;;;;5054811;28;20868;-64
2022/05/10 01:06:11;;;;;;;4.50;3.27;;;13.90;1.00;;;;;;5055003;28;20401;-64
2022/05/10 01:08:57;;;;;;;6.17;3.47;;;13.90;1.00;;;;;;5054160;28;20436;-65
2022/05/10 01:11:51;;;;;;;5.77;3.83;;;13.90;1.00;;;;;;5054962;28;20375;-60
2022/05/10 01:14:32;;;;;;;5.20;3.80;;;13.80;1.00;;;;;;5054524;28;20376;-62
2022/05/10 01:16:58;;;;;;;9.20;3.30;;;13.80;1.00;;;;;;5054692;28;20412;-64
2022/05/10 01:19:24;;;;;;;4.17;3.77;;;13.70;1.00;;;;;;5054183;28;20368;-65
2022/05/10 01:21:56;;;;;;;5.83;4.17;;;13.70;1.00;;;;;;5053620;28;20205;-65
2022/05/10 01:25:00;;;;;;;4.27;3.17;;;13.80;1.00;;;;;;5054584;28;20703;-60
2022/05/10 01:27:48;;;;;;;6.03;4.53;;;13.70;1.00;;;;;;5018538;28;20837;-65
2022/05/10 01:30:20;;;;;;;5.90;4.10;;;13.70;1.00;;;;;;5053884;28;20375;-65
2022/05/10 01:35:51;;;;;;;3.93;3.30;;;13.60;1.00;;;;;;5054361;28;20434;-65
2022/05/10 01:38:42;;;;;;;5.97;4.50;;;13.50;1.00;;;;;;5054359;28;20383;-60
2022/05/10 01:41:30;;;;;;;4.17;3.20;;;13.50;1.00;;;;;;5054255;28;20389;-60
2022/05/10 01:44:17;;;;;;;4.03;3.60;;;13.40;1.00;;;;;;5054182;28;20480;-65
2022/05/10 01:46:45;;;;;;;4.20;3.80;;;13.40;1.00;;;;;;5054222;28;20761;-60
2022/05/10 01:49:49;;;;;;;11.70;5.33;;;13.30;1.60;;;;;;5053614;28;20404;-65
2022/05/10 01:52:29;;;;;;;3.97;3.63;;;13.30;4.20;;;;;;5050372;28;20491;-60
2022/05/10 01:55:00;;;;;;;6.10;3.77;;;13.20;2.90;;;;;;5054046;28;20752;-65
2022/05/10 01:57:29;;;;;;;7.93;3.80;;;13.20;5.30;;;;;;5054071;28;20373;-61
2022/05/10 02:00:07;;;;;;;7.17;4.00;;;13.10;4.80;;;;;;5053374;28;20404;-60
2022/05/10 02:02:35;;;;;;;4.43;3.70;;;13.00;1.60;;;;;;5053862;28;20427;-64
2022/05/10 02:05:05;;;;;;;4.50;3.27;;;13.00;2.00;;;;;;5053851;28;20961;-64
2022/05/10 02:07:32;;;;;;;4.70;3.57;;;13.00;2.00;;;;;;5053927;28;20452;-65
2022/05/10 02:10:06;;;;;;;4.17;3.40;;;13.00;2.50;;;;;;5052707;28;20375;-64
2022/05/10 02:12:38;;;;;;;5.53;3.17;;;13.10;1.00;;;;;;5053765;28;20396;-60
2022/05/10 02:15:27;;;;;;;7.87;4.10;;;13.10;1.00;;;;;;5053611;28;20383;-65
2022/05/10 02:18:29;;;;;;;4.07;3.57;;;13.20;1.50;;;;;;5053788;28;20411;-60
2022/05/10 02:21:14;;;;;;;4.67;3.20;;;13.30;4.70;;;;;;5048811;28;20428;-63
2022/05/10 02:24:05;;;;;;;7.10;3.90;;;13.30;3.70;;;;;;5053535;28;20396;-60
2022/05/10 02:26:38;;;;;;;6.20;3.63;;;13.30;2.30;;;;;;5053455;28;20921;-65
2022/05/10 02:29:08;;;;;;;5.50;4.00;;;13.30;1.40;;;;;;5052355;28;20383;-65
2022/05/10 02:34:33;;;;;;;6.23;4.20;;;13.20;3.50;;;;;;5053424;28;20403;-60
2022/05/10 02:36:59;;;;;;;9.93;4.03;;;13.10;2.90;;;;;;5052510;28;20380;-60
2022/05/10 02:39:25;;;;;;;4.20;3.80;;;13.20;1.10;;;;;;5052525;28;20984;-60
2022/05/10 02:41:50;;;;;;;5.43;3.30;;;13.20;1.80;;;;;;5053454;28;20308;-65
2022/05/10 02:44:17;;;;;;;4.87;3.73;;;13.20;1.20;;;;;;5053320;28;20183;-65
2022/05/10 02:46:43;;;;;;;4.37;3.47;;;13.20;2.90;;;;;;5052862;28;20167;-60
2022/05/10 02:49:08;;;;;;;4.77;4.13;;;13.20;1.20;;;;;;5052659;28;20387;-64
2022/05/10 02:51:34;;;;;;;4.77;3.50;;;13.20;1.00;;;;;;5053056;28;20249;-60
2022/05/10 02:54:00;;;;;;;6.33;3.77;;;13.20;1.00;;;;;;5053476;28;20636;-60
2022/05/10 02:56:28;;;;;;;5.03;3.80;;;13.30;1.00;;;;;;5053226;28;20174;-65
2022/05/10 02:58:59;;;;;;;6.00;3.77;;;13.30;1.00;;;;;;5052584;28;20186;-60
2022/05/10 03:01:43;;;;;;;4.70;3.67;;;13.30;1.00;;;;;;5053009;28;20368;-65
2022/05/10 03:04:10;;;;;;;6.10;3.87;;;13.30;1.00;;;;;;5052579;28;20396;-64
2022/05/10 03:06:38;;;;;;;8.23;4.50;;;13.30;1.00;;;;;;5053116;28;20490;-65
2022/05/10 03:09:05;;;;;;;4.00;3.60;;;13.30;1.00;;;;;;5052480;28;20449;-60
2022/05/10 03:11:31;;;;;;;5.77;5.20;;;13.30;1.00;;;;;;5051747;28;20431;-64
2022/05/10 03:13:57;;;;;;;3.10;2.80;;;13.30;1.00;;;;;;5053029;28;20807;-60
2022/05/10 03:16:24;;;;;;;5.10;3.60;;;13.30;1.50;;;;;;5053117;28;20528;-60
2022/05/10 03:18:50;;;;;;;4.50;4.10;;;13.30;1.20;;;;;;5052367;28;20167;-60
2022/05/10 03:21:16;;;;;;;4.10;3.67;;;13.30;1.60;;;;;;5052780;28;20384;-61
2022/05/10 03:23:42;;;;;;;5.97;4.50;;;13.20;1.20;;;;;;5052565;28;20396;-60
2022/05/10 03:26:11;;;;;;;4.07;3.67;;;13.20;1.00;;;;;;5053181;28;20404;-60
2022/05/10 03:28:37;;;;;;;4.17;3.87;;;13.30;1.50;;;;;;5052108;28;20473;-61
2022/05/10 03:31:05;;;;;;;4.17;3.57;;;13.20;1.00;;;;;;5052876;28;20485;-60
2022/05/10 03:33:31;;;;;;;5.30;3.30;;;13.20;1.20;;;;;;5052687;28;20182;-64
2022/05/10 03:35:56;;;;;;;6.50;3.53;;;13.20;1.00;;;;;;5052810;28;20749;-65
2022/05/10 03:38:22;;;;;;;6.10;4.70;;;13.20;1.00;;;;;;5052552;28;20171;-61
2022/05/10 03:40:47;;;;;;;4.07;3.77;;;13.10;1.00;;;;;;5052098;28;20171;-65
2022/05/10 03:43:13;;;;;;;8.00;4.20;;;13.20;2.30;;;;;;5052769;28;20214;-60
2022/05/10 03:45:38;;;;;;;5.10;3.70;;;13.20;3.50;;;;;;5052676;28;20505;-61
2022/05/10 03:48:05;;;;;;;7.23;3.70;;;13.20;2.60;;;;;;5052567;28;20524;-65
2022/05/10 03:50:31;;;;;;;8.93;4.67;;;13.20;1.40;;;;;;5055712;28;20636;-64
2022/05/10 03:52:56;;;;;;;4.50;4.10;;;13.20;2.60;;;;;;5056376;28;20483;-60
2022/05/10 03:55:24;;;;;;;5.90;4.07;;;13.20;1.00;;;;;;5056465;28;20198;-64
2022/05/10 03:57:51;;;;;;;4.37;3.97;;;13.20;1.00;;;;;;5056333;28;20178;-64
2022/05/10 04:00:20;;;;;;;4.30;4.00;;;13.20;2.40;;;;;;5055077;28;20374;-61
2022/05/10 04:02:46;;;;;;;4.90;4.00;;;13.20;1.00;;;;;;5056207;28;20916;-64
2022/05/10 04:05:13;;;;;;;4.70;4.30;;;13.20;3.00;;;;;;5056300;28;20448;-60
2022/05/10 04:07:40;;;;;;;6.53;4.27;;;13.30;2.40;;;;;;5054846;28;20202;-64
2022/05/10 04:10:08;;;;;;;5.90;4.83;;;13.30;2.20;;;;;;5055389;28;20419;-60
2022/05/10 04:12:35;;;;;;;8.27;4.40;;;13.30;3.50;;;;;;5056057;28;20425;-65
2022/05/10 04:15:00;;;;;;;6.40;5.00;;;13.30;2.60;;;;;;5055946;28;20433;-64
2022/05/10 04:17:26;;;;;;;4.27;3.67;;;13.30;2.20;;;;;;5055506;28;20487;-60
2022/05/10 04:19:52;;;;;;;11.60;4.33;;;13.30;2.50;;;;;;5055265;28;20285;-60
2022/05/10 04:22:18;;;;;;;4.70;4.20;;;13.30;2.30;;;;;;5055739;28;20649;-65
2022/05/10 04:24:44;;;;;;;7.33;4.00;;;13.30;4.00;;;;;;5055838;28;20582;-60
2022/05/10 04:27:09;;;;;;;4.63;4.10;;;13.40;3.60;;;;;;5055620;28;20430;-60
2022/05/10 04:29:35;;;;;;;8.20;4.47;;;13.50;3.90;;;;;;5054979;28;20627;-60
2022/05/10 04:32:01;;;;;;;4.27;3.97;;;13.60;3.90;;;;;;5055456;28;20591;-61
2022/05/10 04:34:26;;;;;;;4.70;4.30;;;13.60;5.30;;;;;;5055091;28;20620;-64
2022/05/10 04:36:52;;;;;;;8.37;4.97;;;13.60;6.40;;;;;;5054220;28;20186;-60
2022/05/10 04:39:18;;;;;;;4.87;4.47;;;13.70;6.50;;;;;;5054770;28;20194;-65
2022/05/10 04:41:48;;;;;;;12.30;4.87;;;13.70;8.20;;;;;;5055312;28;20175;-60
2022/05/10 04:44:13;;;;;;;5.50;3.90;;;13.80;7.30;;;;;;5055220;28;20701;-65
2022/05/10 04:46:40;;;;;;;9.83;4.10;;;13.80;9.30;;;;;;5053903;28;20466;-65
2022/05/10 04:49:08;;;;;;;4.10;3.70;;;13.80;8.50;;;;;;5054618;28;20167;-60
2022/05/10 04:51:35;;;;;;;6.57;5.50;;;13.80;9.80;;;;;;5055338;28;20379;-65
2022/05/10 04:54:01;;;;;;;5.27;4.30;;;13.80;9.10;;;;;;5054778;28;20413;-61
2022/05/10 04:56:27;;;;;;;4.60;4.20;;;13.90;10.50;;;;;;5055173;28;20415;-60
2022/05/10 04:58:56;;;;;;;10.50;4.60;;;13.90;10.90;;;;;;5054559;28;20387;-60
2022/05/10 05:01:29;;;;;;;8.07;4.23;;;14.00;12.50;;;;;;5054076;28;20410;-64
2022/05/10 05:03:56;;;;;;;11.27;4.83;;;14.00;11.90;;;;;;5054933;28;20781;-65
2022/05/10 05:06:24;;;;;;;4.30;3.83;;;14.00;14.50;;;;;;5055000;28;20490;-64
2022/05/10 05:08:50;;;;;;;5.40;4.30;;;14.00;14.10;;;;;;5054281;28;20432;-65
2022/05/10 05:11:16;;;;;;;6.23;3.90;;;14.10;14.60;;;;;;5054920;28;20703;-60
2022/05/10 05:13:42;;;;;;;4.70;4.30;;;14.10;13.70;;;;;;5054411;28;20471;-65
2022/05/10 05:16:07;;;;;;;6.40;5.00;;;14.20;15.60;;;;;;5054935;28;20397;-65
2022/05/10 05:18:33;;;;;;;6.37;4.50;;;14.20;14.90;;;;;;5053996;28;20540;-64
2022/05/10 05:20:59;;;;;;;5.33;4.33;;;14.20;14.70;;;;;;5054855;28;20178;-60
2022/05/10 05:23:24;;;;;;;4.67;4.27;;;14.30;16.20;;;;;;5054693;28;20195;-65
2022/05/10 05:25:53;;;;;;;4.43;3.93;;;14.30;16.90;;;;;;5054665;28;20206;-59
2022/05/10 05:28:19;;;;;;;6.53;4.57;;;14.40;16.10;;;;;;5054353;28;20195;-60
2022/05/10 05:30:45;;;;;;;5.17;4.10;;;14.40;18.90;;;;;;5053449;28;20372;-60
2022/05/10 05:33:12;;;;;;;11.77;4.57;;;14.50;20.40;;;;;;5054600;28;20420;-60
2022/05/10 05:35:38;;;;;;;4.47;4.00;;;14.60;21.30;;;;;;5054411;28;20452;-66
2022/05/10 05:38:04;;;;;;;6.77;4.10;;;14.60;21.50;;;;;;5054357;28;20883;-61
2022/05/10 05:40:29;;;;;;;4.80;3.60;;;14.70;20.90;;;;;;5053549;28;20233;-64
2022/05/10 05:42:55;;;;;;;4.40;4.00;;;14.70;20.00;;;;;;5054095;28;20425;-62
2022/05/10 05:45:23;;;;;;;8.80;5.13;;;14.80;22.60;;;;;;5054124;28;20178;-62
2022/05/10 05:47:49;;;;;;;4.63;4.07;;;14.80;23.90;;;;;;5053778;28;20586;-63
2022/05/10 05:50:17;;;;;;;4.33;3.93;;;14.90;22.70;;;;;;5053499;28;20429;-60
2022/05/10 05:52:44;;;;;;;4.67;4.17;;;14.90;23.60;;;;;;5053880;28;20436;-65
2022/05/10 05:55:11;;;;;;;5.77;4.33;;;15.00;25.40;;;;;;5054142;28;20402;-59
2022/05/10 05:57:37;;;;;;;5.37;4.30;;;15.00;25.80;;;;;;5054038;28;20404;-64
2022/05/10 06:00:06;;;;;;;7.83;4.67;;;15.00;25.50;;;;;;5053384;28;20401;-59
2022/05/10 06:02:32;;;;;;;4.77;4.27;;;15.10;25.90;;;;;;5053753;28;20193;-66
2022/05/10 06:04:58;;;;;;;4.30;3.90;;;15.10;25.90;;;;;;5053557;28;20521;-66
2022/05/10 06:07:23;;;;;;;7.30;4.73;;;15.20;27.60;;;;;;5053812;28;20528;-60
2022/05/10 06:09:49;;;;;;;6.07;4.30;;;15.20;29.50;;;;;;5053377;28;20171;-64
2022/05/10 06:12:17;;;;;;;5.77;4.23;;;15.20;29.20;;;;;;5053677;28;20183;-65
2022/05/10 06:14:43;;;;;;;7.27;4.70;;;15.30;29.30;;;;;;5053765;28;20167;-65
2022/05/10 06:17:11;;;;;;;12.53;5.60;;;15.40;31.50;;;;;;5053708;28;20505;-65
2022/05/10 06:19:39;;;;;;;6.20;4.40;;;15.40;31.90;;;;;;5053055;28;20805;-60
2022/05/10 06:22:06;;;;;;;5.60;5.03;;;15.50;32.90;;;;;;5043675;28;20450;-64
2022/05/10 06:24:32;;;;;;;5.37;4.40;;;15.60;33.60;;;;;;5033172;28;20451;-60
2022/05/10 06:26:58;;;;;;;5.40;4.33;;;15.70;35.60;;;;;;5033410;28;20453;-61
2022/05/10 06:29:24;;;;;;;4.77;4.37;;;15.80;32.30;;;;;;5043466;28;20544;-66
2022/05/10 06:31:50;;;;;;;5.80;5.30;;;15.80;36.10;;;;;;5049786;28;20389;-62
2022/05/10 06:34:18;;;;;;;6.87;4.80;;;15.80;33.60;;;;;;5033417;28;20433;-66
2022/05/10 06:36:44;;;;;;;8.17;4.63;;;15.90;34.90;;;;;;5036867;28;20482;-65
2022/05/10 06:39:10;;;;;;;4.97;4.50;;;16.00;34.80;;;;;;5032433;28;20386;-67
2022/05/10 06:41:36;;;;;;;4.97;4.57;;;16.00;37.30;;;;;;5033463;28;20402;-64
2022/05/10 06:44:03;;;;;;;10.60;4.53;;;16.10;37.40;;;;;;5032952;28;20179;-66
2022/05/10 06:46:32;;;;;;;7.73;3.90;;;16.10;38.50;;;;;;5033387;28;20488;-60
2022/05/10 06:48:58;;;;;;;7.53;4.90;;;16.20;41.40;;;;;;5032588;28;20450;-66
2022/05/10 06:51:25;;;;;;;11.50;5.30;;;16.30;42.50;;;;;;5033248;28;20521;-60
2022/05/10 06:53:51;;;;;;;5.17;4.67;;;16.50;39.60;;;;;;5033370;28;20441;-66
2022/05/10 06:56:17;;;;;;;5.20;4.70;;;16.50;40.00;;;;;;5033433;28;20430;-66
2022/05/10 06:58:44;;;;;;;4.73;4.43;;;16.70;40.90;;;;;;5032863;28;20494;-60
2022/05/10 07:01:12;;;;;;;12.27;4.27;;;16.80;43.00;;;;;;5033381;28;20494;-61
2022/05/10 07:03:45;;;;;;;4.97;4.57;;;16.90;43.70;;;;;;5032622;28;20488;-66
2022/05/10 07:06:13;;;;;;;6.00;4.50;;;17.10;43.80;;;;;;5034173;28;20401;-60
2022/05/10 07:08:39;;;;;;;8.70;5.00;;;17.20;44.60;;;;;;5052126;28;20802;-66
2022/05/10 07:11:05;;;;;;;5.20;4.70;;;17.50;44.80;;;;;;5051571;28;20402;-62
2022/05/10 07:13:32;;;;;;;4.63;4.17;;;17.60;45.70;;;;;;5033101;28;20442;-60
2022/05/10 07:15:58;;;;;;;6.43;5.13;;;17.60;42.30;;;;;;5033350;28;20489;-60
2022/05/10 07:18:24;;;;;;;7.60;4.77;;;17.70;45.20;;;;;;5051331;28;20509;-60
2022/05/10 07:20:51;;;;;;;4.60;4.20;;;17.80;45.50;;;;;;5051871;28;20743;-67
2022/05/10 07:23:27;;;;;;;5.43;4.17;;;17.90;47.10;;;;;;5036416;28;20496;-70
2022/05/10 07:25:53;;;;;;;6.00;5.40;;;18.00;47.50;;;;;;5036884;28;20418;-64
2022/05/10 07:28:18;;;;;;;6.33;5.47;;;18.20;46.00;;;;;;5052629;28;20452;-69
2022/05/10 07:30:44;;;;;;;14.40;4.40;;;18.30;45.70;;;;;;5055947;28;20175;-64
2022/05/10 07:33:10;;;;;;;4.77;4.13;;;18.40;46.70;;;;;;5042334;28;20265;-71
2022/05/10 07:38:20;;;;;;;9.67;4.90;;;18.50;46.70;;;;;;5050919;28;20205;-64
2022/05/10 07:40:48;;;;;;;5.40;4.90;;;18.60;45.30;;;;;;5054644;28;20413;-69
2022/05/10 07:43:15;;;;;;;6.20;4.60;;;18.70;48.30;;;;;;5054856;28;20198;-65
2022/05/10 07:45:43;;;;;;;7.57;6.13;;;18.80;44.60;;;;;;5056363;28;20436;-66
2022/05/10 07:48:09;;;;;;;7.33;4.87;;;18.90;43.60;;;;;;5042940;28;20465;-63
2022/05/10 07:50:34;;;;;;;10.97;4.70;;;18.90;42.40;;;;;;5035709;28;20393;-63
2022/05/10 07:53:06;;;;;;;5.20;4.80;;;18.90;42.00;;;;;;5045171;28;20444;-60
2022/05/10 07:55:35;;;;;;;7.60;5.17;;;19.00;45.70;;;;;;5055651;28;20531;-62
2022/05/10 07:58:04;;;;;;;5.93;5.37;;;19.00;43.20;;;;;;5046378;28;20465;-61
2022/05/10 08:00:31;;;;;;;6.93;5.43;;;19.00;41.00;;;;;;5035298;28;20410;-61
2022/05/10 08:02:57;;;;;;;5.53;5.10;;;19.00;40.30;;;;;;5036145;28;20864;-66
2022/05/10 08:05:25;;;;;;;7.37;5.40;;;19.00;41.60;;;;;;5036395;28;20398;-66
2022/05/10 08:07:51;;;;;;;6.87;4.80;;;19.00;43.20;;;;;;5036170;28;20215;-69
2022/05/10 08:10:18;;;;;;;8.33;5.43;;;19.10;42.00;;;;;;5035466;28;20452;-64
2022/05/10 08:12:44;;;;;;;9.97;5.90;;;19.10;42.90;;;;;;5035652;28;20803;-67
2022/05/10 08:15:10;;;;;;;10.83;5.00;;;19.10;40.90;;;;;;5034843;28;20398;-64
2022/05/10 08:17:36;;;;;;;9.33;5.23;;;19.10;44.20;;;;;;5036015;28;20402;-63
2022/05/10 08:20:03;;;;;;;6.47;5.83;;;19.10;45.20;;;;;;5035315;28;20414;-61
2022/05/10 08:22:31;;;;;;;5.87;5.37;;;19.10;41.10;;;;;;5035799;28;20430;-65
2022/05/10 08:24:56;;;;;;;6.60;6.00;;;19.10;41.30;;;;;;5035881;28;20411;-66
2022/05/10 08:27:22;;;;;;;6.60;5.90;;;19.10;40.20;;;;;;5035834;28;20471;-60
2022/05/10 08:29:47;;;;;;;5.40;4.93;;;19.10;44.50;;;;;;5034619;28;20254;-62
2022/05/10 08:32:13;;;;;;;6.20;5.13;;;19.10;43.20;;;;;;5035637;28;20196;-66
2022/05/10 08:34:39;;;;;;;9.13;5.00;;;19.20;45.40;;;;;;5035726;28;20168;-66
2022/05/10 08:37:06;;;;;;;8.87;5.63;;;19.30;41.20;;;;;;5035663;28;20632;-60
2022/05/10 08:39:32;;;;;;;10.10;5.20;;;19.30;44.80;;;;;;5034957;28;20250;-61
2022/05/10 08:42:02;;;;;;;6.90;6.00;;;19.30;45.50;;;;;;5035490;28;20506;-64
2022/05/10 08:44:33;;;;;;;7.20;6.50;;;19.40;48.10;;;;;;5035587;28;20406;-66
2022/05/10 08:47:03;;;;;;;10.57;5.43;;;19.50;43.90;;;;;;5035461;28;20954;-66
2022/05/10 08:49:57;;;;;;;6.83;5.80;;;19.60;44.50;;;;;;5034446;28;20464;-67
2022/05/10 08:52:34;;;;;;;9.00;6.40;;;19.80;44.10;;;;;;5035334;28;20836;-65
2022/05/10 08:55:00;;;;;;;10.47;6.80;;;20.00;42.30;;;;;;5035615;28;20402;-66
2022/05/10 08:57:48;;;;;;;9.20;5.80;;;20.10;43.90;;;;;;5035573;28;20449;-60
2022/05/10 09:00:49;;;;;;;6.87;6.17;;;20.30;46.10;;;;;;5034539;28;20875;-61
2022/05/10 09:03:28;;;;;;;6.47;5.83;;;20.40;38.10;;;;;;5034799;28;20464;-60
2022/05/10 09:06:03;;;;;;;6.97;6.37;;;20.40;40.90;;;;;;5033801;28;20505;-66
2022/05/10 09:08:56;;;;;;;8.33;7.03;;;20.20;37.60;;;;;;5034523;28;20453;-68
2022/05/10 09:11:22;;;;;;;8.33;6.20;;;20.30;39.50;;;;;;5034040;28;20412;-61
2022/05/10 09:13:48;;;;;;;9.53;6.60;;;20.40;37.10;;;;;;5034977;28;20980;-61
2022/05/10 09:16:15;;;;;;;10.90;6.50;;;20.70;40.70;;;;;;5034735;28;20430;-61
2022/05/10 09:18:49;;;;;;;13.30;7.03;;;21.20;40.40;;;;;;5034081;28;20242;-61
2022/05/10 09:21:18;;;;;;;9.73;7.43;;;21.50;35.90;;;;;;5052768;28;20528;-66
2022/05/10 09:23:54;;;;;;;16.13;7.67;;;21.60;30.10;;;;;;5054528;28;20477;-60
2022/05/10 09:26:24;;;;;;;10.07;7.50;;;21.50;25.20;;;;;;5034917;28;20863;-65
2022/05/10 09:29:12;;;;;;;11.03;7.90;;;21.30;23.60;;;;;;5033856;28;20457;-66
2022/05/10 09:37:35;;;;;;;13.43;7.67;;;22.30;25.90;;;;;;5054718;28;20905;-67
2022/05/10 09:40:42;;;;;;;8.60;6.60;;;23.00;26.90;;;;;;5047527;28;20418;-63
2022/05/10 09:43:22;;;;;;;11.77;7.57;;;23.60;23.90;;;;;;5033662;28;20963;-68
2022/05/10 09:46:29;;;;;;;13.17;8.50;;;23.80;16.30;;;;;;5045302;28;20979;-63
2022/05/10 09:48:55;;;;;;;8.00;6.40;;;23.70;11.30;;;;;;5053193;28;20532;-66
2022/05/10 09:51:36;;;;;;;10.60;7.27;;;23.90;12.70;;;;;;5038600;28;20421;-63
2022/05/10 09:54:04;;;;;;;7.83;7.03;;;24.40;10.10;;;;;;5032908;28;20842;-66
2022/05/10 09:56:50;;;;;;;16.97;6.93;;;24.80;8.10;;;;;;5049696;28;20501;-63
2022/05/10 09:59:21;;;;;;;13.33;7.90;;;24.80;1.00;;;;;;5053378;28;20412;-66
2022/05/10 10:01:50;;;;;;;9.03;6.23;;;24.80;1.00;;;;;;5035634;28;20916;-62
2022/05/10 10:04:31;;;;;;;8.27;7.07;;;25.00;1.00;;;;;;5033891;28;20907;-66
2022/05/10 10:07:18;;;;;;;8.67;4.83;;;25.00;1.00;;;;;;5051803;28;20435;-66
2022/05/10 10:09:55;;;;;;;8.93;5.60;;;25.20;1.00;;;;;;5051418;28;20487;-64
2022/05/10 10:12:35;;;;;;;6.80;5.37;;;25.30;1.00;;;;;;5053692;28;20429;-66
2022/05/10 10:15:24;;;;;;;9.03;5.40;;;25.70;1.00;;;;;;5048451;28;20446;-61
2022/05/10 10:17:56;;;;;;;5.70;5.10;;;25.90;1.00;;;;;;5033947;28;20479;-61
2022/05/10 10:20:36;;;;;;;7.47;4.90;;;25.50;1.00;;;;;;5039923;28;20471;-67
2022/05/10 10:23:08;;;;;;;13.57;5.90;;;25.30;1.00;;;;;;5053235;28;20433;-62
2022/05/10 10:25:46;;;;;;;5.57;4.67;;;25.10;1.00;;;;;;5041046;28;20477;-62
2022/05/10 10:28:31;;;;;;;8.90;4.83;;;24.90;1.00;;;;;;5032478;28;20465;-66
2022/05/10 10:31:29;;;;;;;5.80;4.23;;;25.20;1.00;;;;;;5048046;28;20417;-66
2022/05/10 10:34:27;;;;;;;6.13;5.33;;;25.80;1.00;;;;;;5041393;28;20449;-67
2022/05/10 10:36:59;;;;;;;10.57;4.90;;;25.90;1.00;;;;;;5017523;28;20469;-64
2022/05/10 10:39:47;;;;;;;8.03;4.30;;;25.70;1.00;;;;;;5033454;28;20451;-61
2022/05/10 10:42:28;;;;;;;9.20;4.40;;;25.70;1.00;;;;;;5052975;28;20915;-61
2022/05/10 10:44:57;;;;;;;5.47;3.87;;;25.90;1.00;;;;;;5047447;28;20409;-62
2022/05/10 10:47:51;;;;;;;6.83;4.00;;;25.60;1.00;;;;;;5033346;28;20450;-66
2022/05/10 10:50:28;;;;;;;4.90;3.57;;;25.50;1.00;;;;;;5039422;28;20409;-66
2022/05/10 10:52:56;;;;;;;4.47;2.90;;;25.90;1.00;;;;;;5053118;28;20436;-62
2022/05/10 10:55:43;;;;;;;3.80;2.60;;;26.00;1.00;;;;;;5035183;28;20423;-65
2022/05/10 10:58:29;;;;;;;3.20;3.00;;;25.70;1.00;;;;;;5032998;28;20402;-66
2022/05/10 11:01:33;;;;;;;3.30;3.00;;;25.70;1.00;;;;;;5048288;28;20421;-61
2022/05/10 11:04:08;;;;;;;3.57;3.17;;;25.60;1.00;;;;;;5036331;28;20440;-65
2022/05/10 11:06:48;;;;;;;4.20;2.47;;;25.60;1.00;;;;;;5042413;28;20412;-62
2022/05/10 11:09:44;;;;;;;6.60;3.20;;;25.40;1.00;;;;;;5056346;28;20519;-67
2022/05/10 11:12:22;;;;;;;3.57;3.00;;;25.00;1.00;;;;;;5045853;28;20803;-66
2022/05/10 11:15:19;;;;;;;3.30;2.20;;;24.70;1.00;;;;;;5035934;28;20406;-63
2022/05/10 11:18:05;;;;;;;8.77;2.47;;;24.40;1.00;;;;;;5050758;28;20516;-66
2022/05/10 11:21:00;;;;;;;3.03;1.83;;;24.40;1.00;;;;;;5056116;28;20417;-61
2022/05/10 11:23:55;;;;;;;3.07;1.90;;;24.50;1.00;;;;;;5033037;28;20462;-61
2022/05/10 11:26:54;;;;;;;2.30;1.77;;;24.60;1.00;;;;;;5037053;28;20417;-61
2022/05/10 11:29:44;;;;;;;2.93;1.70;;;24.60;1.00;;;;;;5041272;28;20405;-62
2022/05/10 11:32:32;;;;;;;2.63;2.13;;;24.80;1.00;;;;;;5056709;28;20429;-63
2022/05/10 11:35:21;;;;;;;3.97;2.30;;;24.70;1.00;;;;;;5046244;28;20412;-62
2022/05/10 11:38:04;;;;;;;4.30;2.10;;;24.80;1.00;;;;;;5036639;28;20422;-62
2022/05/10 11:40:54;;;;;;;2.70;2.50;;;25.00;1.00;;;;;;5050613;28;20913;-61
2022/05/10 11:43:42;;;;;;;2.97;2.30;;;25.10;1.00;;;;;;5056545;28;20453;-66
2022/05/10 11:46:47;;;;;;;4.13;2.67;;;25.40;1.00;;;;;;5056024;28;20421;-66
2022/05/10 11:49:39;;;;;;;2.53;2.33;;;26.10;1.00;;;;;;5051921;28;20467;-65
2022/05/10 11:52:40;;;;;;;3.30;3.10;;;26.40;1.00;;;;;;5036157;28;20421;-67
2022/05/10 11:55:14;;;;;;;3.17;2.53;;;26.40;1.00;;;;;;5046356;28;20405;-62
2022/05/10 11:57:42;;;;;;;3.83;3.27;;;26.30;1.00;;;;;;5056178;28;20471;-66
2022/05/10 12:00:26;;;;;;;4.80;3.23;;;25.60;1.00;;;;;;5044062;28;20775;-62
2022/05/10 12:02:56;;;;;;;2.97;2.70;;;25.40;1.00;;;;;;5036137;28;20772;-66
2022/05/10 12:05:31;;;;;;;3.60;2.80;;;25.40;1.00;;;;;;5047343;28;20421;-66
2022/05/10 12:08:00;;;;;;;4.30;2.80;;;25.40;1.00;;;;;;5056141;28;20794;-66
2022/05/10 12:10:36;;;;;;;3.87;3.10;;;25.50;1.00;;;;;;5043300;28;20509;-64
2022/05/10 12:13:05;;;;;;;3.77;3.43;;;25.80;1.00;;;;;;5035787;28;20435;-67
2022/05/10 12:21:51;;;;;;;6.93;3.30;;;26.20;1.00;;;;;;5043468;28;20525;-64
2022/05/10 12:24:20;;;;;;;3.73;3.30;;;25.80;1.00;;;;;;5035999;28;20537;-67
2022/05/10 12:26:54;;;;;;;3.83;3.07;;;25.40;1.00;;;;;;5035801;28;20405;-65
2022/05/10 12:29:38;;;;;;;2.93;2.73;;;25.10;1.00;;;;;;5034549;28;20411;-64
2022/05/10 12:32:38;;;;;;;6.50;3.63;;;24.90;1.00;;;;;;5035662;28;20416;-64
2022/05/10 12:35:07;;;;;;;4.00;3.60;;;24.80;1.00;;;;;;5038777;28;20413;-63
2022/05/10 12:37:48;;;;;;;4.77;3.20;;;24.60;1.00;;;;;;5034721;28;20407;-65
2022/05/10 12:40:16;;;;;;;4.37;3.57;;;24.30;1.00;;;;;;5034836;28;20417;-66
2022/05/10 12:43:19;;;;;;;4.20;3.50;;;24.30;1.00;;;;;;5035532;28;20505;-66
2022/05/10 12:45:53;;;;;;;7.13;3.17;;;24.30;1.00;;;;;;5048842;28;20524;-64
2022/05/10 12:48:40;;;;;;;4.67;2.73;;;24.20;1.00;;;;;;5054865;28;20444;-65
2022/05/10 12:51:18;;;;;;;6.23;3.77;;;24.20;1.00;;;;;;5036608;28;20410;-62
2022/05/10 12:53:57;;;;;;;5.10;3.37;;;24.20;1.00;;;;;;5039018;28;20433;-66
2022/05/10 12:56:44;;;;;;;6.87;4.90;;;24.20;1.00;;;;;;5035231;28;20438;-63
2022/05/10 12:59:22;;;;;;;4.23;3.80;;;24.20;1.00;;;;;;5034435;28;20982;-61
2022/05/10 13:01:47;;;;;;;5.50;3.27;;;24.60;1.00;;;;;;5034115;28;20984;-62
2022/05/10 13:04:13;;;;;;;5.20;2.87;;;25.10;1.00;;;;;;5041936;28;20512;-67
2022/05/10 13:06:46;;;;;;;4.70;2.90;;;25.40;1.00;;;;;;5053858;28;20179;-61
2022/05/10 13:09:27;;;;;;;3.50;3.20;;;25.40;1.00;;;;;;5046880;28;20652;-61
2022/05/10 13:11:58;;;;;;;4.20;3.30;;;25.30;1.00;;;;;;5035037;28;20778;-62
2022/05/10 13:14:27;;;;;;;4.80;3.40;;;25.40;1.00;;;;;;5042424;28;20779;-61
2022/05/10 13:16:54;;;;;;;3.80;3.00;;;25.50;1.00;;;;;;5054998;28;20405;-61
2022/05/10 13:19:22;;;;;;;3.90;3.17;;;25.40;1.00;;;;;;5054044;28;20393;-61
2022/05/10 13:21:48;;;;;;;3.87;3.30;;;25.10;1.00;;;;;;5054026;28;20439;-61
2022/05/10 13:24:18;;;;;;;3.23;2.97;;;24.90;1.00;;;;;;5054480;28;20930;-65
2022/05/10 13:27:20;;;;;;;4.37;3.47;;;24.60;1.00;;;;;;5054608;28;20398;-61
2022/05/10 13:29:48;;;;;;;3.80;3.50;;;24.50;1.00;;;;;;5054103;28;20401;-61
2022/05/10 13:32:37;;;;;;;5.77;3.10;;;24.40;1.00;;;;;;5054524;28;20914;-61
2022/05/10 13:35:21;;;;;;;3.00;2.73;;;24.20;1.00;;;;;;5054622;28;20394;-66
2022/05/10 13:37:55;;;;;;;7.23;3.73;;;23.80;1.00;;;;;;5054427;28;20396;-61
2022/05/10 13:40:33;;;;;;;3.40;3.10;;;23.60;1.00;;;;;;5053736;28;20400;-62
2022/05/10 13:43:09;;;;;;;3.57;2.30;;;23.40;1.00;;;;;;5053817;28;20424;-65
2022/05/10 13:45:35;;;;;;;2.90;2.70;;;23.00;1.00;;;;;;5054377;28;20487;-68